createdAt,value
2022-12-03T00:01:01.289Z,3.21
2022-12-03T00:03:29.759Z,2.13
2022-12-03T00:05:58.007Z,1.36
2022-12-03T00:08:25.984Z,0.73
2022-12-03T00:10:53.877Z,0.25
2022-12-03T00:13:21.827Z,-0.13
2022-12-03T00:15:50.315Z,-0.47
2022-12-03T00:18:18.205Z,-0.18
2022-12-03T00:20:46.121Z,2.29
2022-12-03T00:23:13.968Z,4.69
2022-12-03T00:25:41.889Z,5.92
2022-12-03T00:28:09.770Z,4.77
2022-12-03T00:30:37.962Z,3.16
2022-12-03T00:33:05.898Z,1.90
2022-12-03T00:35:33.785Z,0.95
2022-12-03T00:38:01.698Z,0.31
2022-12-03T00:40:29.553Z,-0.20
2022-12-03T00:42:57.460Z,-0.63
2022-12-03T00:45:25.313Z,-0.31
2022-12-03T00:47:53.230Z,2.26
2022-12-03T00:50:21.088Z,4.55
2022-12-03T00:52:50.052Z,5.77
2022-12-03T00:55:18.141Z,4.39
2022-12-03T00:57:46.155Z,2.80
2022-12-03T01:00:15.500Z,1.67
2022-12-03T01:02:44.088Z,0.90
2022-12-03T01:05:12.039Z,0.31
2022-12-03T01:07:40.187Z,-0.21
2022-12-03T01:10:08.498Z,-0.61
2022-12-03T01:12:36.396Z,-0.36
2022-12-03T01:15:05.928Z,2.10
2022-12-03T01:17:33.888Z,4.31
2022-12-03T01:20:02.661Z,4.69
2022-12-03T01:22:30.631Z,3.33
2022-12-03T01:24:58.678Z,1.98
2022-12-03T01:27:26.896Z,1.01
2022-12-03T01:29:54.859Z,0.28
2022-12-03T01:32:22.889Z,-0.28
2022-12-03T01:34:54.903Z,-0.71
2022-12-03T01:37:26.302Z,-0.56
2022-12-03T01:39:54.825Z,1.57
2022-12-03T01:42:29.125Z,3.99
2022-12-03T01:44:59.660Z,5.65
2022-12-03T01:47:36.553Z,6.16
2022-12-03T01:50:27.681Z,4.58
2022-12-03T01:53:01.664Z,2.72
2022-12-03T01:55:30.358Z,1.51
2022-12-03T01:58:02.002Z,0.61
2022-12-03T02:00:31.852Z,-0.05
2022-12-03T02:03:07.559Z,-0.08
2022-12-03T02:05:37.570Z,2.37
2022-12-03T02:08:35.128Z,4.79
2022-12-03T02:11:30.503Z,4.73
2022-12-03T02:14:11.049Z,2.61
2022-12-03T02:16:41.835Z,1.34
2022-12-03T02:19:27.028Z,0.43
2022-12-03T02:22:16.892Z,-0.30
2022-12-03T02:25:05.684Z,-0.89
2022-12-03T02:27:33.953Z,-0.64
2022-12-03T02:30:01.913Z,1.72
2022-12-03T02:32:29.826Z,3.36
2022-12-03T02:34:57.705Z,3.72
2022-12-03T02:37:32.723Z,2.43
2022-12-03T02:40:10.825Z,1.12
2022-12-03T02:42:39.509Z,0.22
2022-12-03T02:45:25.311Z,-0.39
2022-12-03T02:48:00.875Z,-0.92
2022-12-03T02:50:46.353Z,-0.41
2022-12-03T02:53:21.316Z,1.86
2022-12-03T02:55:52.707Z,3.45
2022-12-03T02:58:23.265Z,4.60
2022-12-03T03:00:55.704Z,5.19
2022-12-03T03:03:28.449Z,3.96
2022-12-03T03:05:58.303Z,2.55
2022-12-03T03:08:27.495Z,1.50
2022-12-03T03:10:57.503Z,0.63
2022-12-03T03:13:25.467Z,-0.09
2022-12-03T03:15:53.457Z,-0.65
2022-12-03T03:18:21.427Z,-0.91
2022-12-03T03:20:49.349Z,0.80
2022-12-03T03:23:21.414Z,3.43
2022-12-03T03:26:00.512Z,5.20
2022-12-03T03:28:30.976Z,5.73
2022-12-03T03:31:04.271Z,4.14
2022-12-03T03:33:33.142Z,2.56
2022-12-03T03:36:01.641Z,1.32
2022-12-03T03:38:30.620Z,0.42
2022-12-03T03:41:02.171Z,-0.24
2022-12-03T03:43:33.524Z,-0.81
2022-12-03T03:46:05.579Z,-1.27
2022-12-03T03:48:35.490Z,-1.63
2022-12-03T03:51:09.083Z,-1.30
2022-12-03T03:53:41.331Z,1.33
2022-12-03T03:56:10.822Z,3.63
2022-12-03T03:58:39.022Z,4.69
2022-12-03T04:01:07.778Z,3.63
2022-12-03T04:03:35.724Z,2.11
2022-12-03T04:06:04.093Z,0.87
2022-12-03T04:08:32.357Z,0.03
2022-12-03T04:11:19.310Z,-0.60
2022-12-03T04:13:47.199Z,-1.14
2022-12-03T04:16:15.194Z,-0.96
2022-12-03T04:18:43.167Z,1.38
2022-12-03T04:21:35.961Z,3.80
2022-12-03T04:24:06.413Z,4.98
2022-12-03T04:26:54.318Z,4.18
2022-12-03T04:29:23.346Z,2.36
2022-12-03T04:32:10.490Z,1.05
2022-12-03T04:34:57.430Z,0.09
2022-12-03T04:37:25.561Z,-0.62
2022-12-03T04:39:53.475Z,-0.69
2022-12-03T04:42:21.707Z,1.24
2022-12-03T04:44:50.668Z,2.90
2022-12-03T04:47:22.518Z,3.58
2022-12-03T04:49:52.120Z,3.70
2022-12-03T04:52:21.358Z,2.51
2022-12-03T04:54:49.430Z,1.28
2022-12-03T04:57:17.490Z,0.31
2022-12-03T04:59:45.547Z,-0.43
2022-12-03T05:02:13.471Z,-0.76
2022-12-03T05:04:42.215Z,1.04
2022-12-03T05:07:10.104Z,2.93
2022-12-03T05:09:37.985Z,4.21
2022-12-03T05:12:06.272Z,4.86
2022-12-03T05:14:34.153Z,3.44
2022-12-03T05:17:02.165Z,1.92
2022-12-03T05:19:59.500Z,0.83
2022-12-03T05:22:27.349Z,-0.05
2022-12-03T05:24:55.585Z,-0.58
2022-12-03T05:27:24.392Z,-1.01
2022-12-03T05:29:53.129Z,-0.99
2022-12-03T05:32:21.163Z,0.55
2022-12-03T05:34:49.212Z,2.93
2022-12-03T05:37:17.116Z,4.86
2022-12-03T05:39:45.103Z,5.59
2022-12-03T05:42:31.893Z,4.16
2022-12-03T05:44:59.818Z,2.41
2022-12-03T05:47:27.649Z,1.25
2022-12-03T05:49:55.491Z,0.31
2022-12-03T05:52:23.357Z,-0.42
2022-12-03T05:54:51.385Z,-0.41
2022-12-03T05:57:19.469Z,1.83
2022-12-03T05:59:47.459Z,3.94
2022-12-03T06:02:15.495Z,4.99
2022-12-03T06:04:43.484Z,3.71
2022-12-03T06:07:14.084Z,2.11
2022-12-03T06:09:42.357Z,0.85
2022-12-03T06:12:10.280Z,-0.07
2022-12-03T06:14:38.126Z,-0.70
2022-12-03T06:17:06.087Z,-0.66
2022-12-03T06:19:34.351Z,1.80
2022-12-03T06:22:02.308Z,4.34
2022-12-03T06:24:30.250Z,5.53
2022-12-03T06:26:58.129Z,4.17
2022-12-03T06:29:25.976Z,2.39
2022-12-03T06:31:53.848Z,1.17
2022-12-03T06:34:21.813Z,0.36
2022-12-03T06:36:50.421Z,-0.28
2022-12-03T06:39:19.085Z,-0.22
2022-12-03T06:41:47.023Z,2.31
2022-12-03T06:44:15.463Z,4.53
2022-12-03T06:46:43.588Z,3.59
2022-12-03T06:49:11.522Z,2.05
2022-12-03T06:51:39.656Z,0.94
2022-12-03T06:54:07.636Z,0.11
2022-12-03T06:56:41.841Z,-0.51
2022-12-03T06:59:13.900Z,-0.31
2022-12-03T07:01:41.989Z,2.31
2022-12-03T07:04:10.167Z,4.81
2022-12-03T07:06:37.998Z,5.81
2022-12-03T07:09:05.878Z,4.49
2022-12-03T07:11:39.939Z,2.99
2022-12-03T07:14:11.352Z,1.75
2022-12-03T07:16:40.149Z,0.79
2022-12-03T07:19:08.129Z,0.13
2022-12-03T07:21:36.259Z,-0.37
2022-12-03T07:24:04.380Z,-0.75
2022-12-03T07:26:32.970Z,-0.50
2022-12-03T07:29:00.930Z,2.16
2022-12-03T07:31:28.919Z,4.64
2022-12-03T07:33:56.845Z,6.17
2022-12-03T07:36:25.298Z,6.58
2022-12-03T07:38:53.252Z,5.04
2022-12-03T07:41:21.145Z,3.31
2022-12-03T07:43:49.112Z,2.04
2022-12-03T07:46:17.099Z,1.15
2022-12-03T07:48:45.022Z,0.44
2022-12-03T07:51:15.239Z,-0.14
2022-12-03T07:53:43.768Z,-0.63
2022-12-03T07:56:11.713Z,-0.32
2022-12-03T07:58:39.705Z,2.38
2022-12-03T08:01:07.790Z,4.95
2022-12-03T08:03:36.087Z,5.86
2022-12-03T08:06:05.328Z,4.48
2022-12-03T08:08:33.202Z,2.81
2022-12-03T08:11:02.367Z,1.52
2022-12-03T08:13:30.408Z,0.63
2022-12-03T08:16:10.292Z,0.54
2022-12-03T08:18:38.314Z,3.17
2022-12-03T08:21:06.924Z,5.59
2022-12-03T08:23:34.810Z,6.16
2022-12-03T08:26:07.134Z,4.53
2022-12-03T08:28:36.223Z,2.83
2022-12-03T08:31:12.442Z,1.64
2022-12-03T08:33:51.688Z,0.71
2022-12-03T08:36:26.337Z,0.06
2022-12-03T08:39:02.277Z,-0.45
2022-12-03T08:41:51.628Z,-0.41
2022-12-03T08:44:41.091Z,2.42
2022-12-03T08:47:23.957Z,5.15
2022-12-03T08:50:26.312Z,5.75
2022-12-03T08:53:06.947Z,3.88
2022-12-03T08:55:39.119Z,2.40
2022-12-03T08:58:41.715Z,1.39
2022-12-03T09:01:12.403Z,0.50
2022-12-03T09:03:52.361Z,-0.02
2022-12-03T09:06:22.144Z,0.25
2022-12-03T09:08:50.194Z,2.90
2022-12-03T09:11:18.181Z,5.37
2022-12-03T09:13:46.060Z,6.39
2022-12-03T09:16:14.032Z,5.10
2022-12-03T09:18:42.833Z,3.44
2022-12-03T09:21:10.945Z,2.20
2022-12-03T09:23:38.857Z,1.31
2022-12-03T09:26:06.868Z,0.68
2022-12-03T09:28:34.768Z,0.13
2022-12-03T09:31:02.704Z,0.35
2022-12-03T09:33:32.515Z,2.91
2022-12-03T09:36:00.384Z,5.21
2022-12-03T09:38:28.281Z,6.16
2022-12-03T09:40:56.173Z,4.91
2022-12-03T09:43:24.581Z,3.33
2022-12-03T09:45:57.934Z,2.13
2022-12-03T09:48:26.250Z,1.23
2022-12-03T09:50:54.395Z,0.54
2022-12-03T09:53:27.429Z,0.58
2022-12-03T09:55:59.584Z,3.00
2022-12-03T09:58:34.518Z,5.21
2022-12-03T10:01:02.977Z,5.92
2022-12-03T10:03:32.209Z,4.57
2022-12-03T10:06:00.087Z,3.09
2022-12-03T10:08:32.140Z,1.95
2022-12-03T10:11:00.462Z,1.13
2022-12-03T10:13:34.650Z,0.46
2022-12-03T10:16:02.718Z,0.52
2022-12-03T10:18:41.287Z,2.83
2022-12-03T10:21:34.295Z,5.34
2022-12-03T10:24:26.015Z,5.65
2022-12-03T10:27:00.693Z,3.68
2022-12-03T10:29:35.142Z,2.36
2022-12-03T10:32:10.285Z,1.45
2022-12-03T10:34:41.590Z,0.74
2022-12-03T10:37:20.177Z,0.23
2022-12-03T10:40:10.839Z,0.58
2022-12-03T10:42:41.591Z,3.78
2022-12-03T10:45:25.449Z,5.87
2022-12-03T10:48:20.328Z,6.78
2022-12-03T10:50:52.188Z,4.96
2022-12-03T10:53:26.313Z,3.33
2022-12-03T10:55:59.810Z,2.21
2022-12-03T10:58:34.210Z,1.51
2022-12-03T11:01:14.239Z,1.59
2022-12-03T11:03:42.663Z,4.32
2022-12-03T11:06:18.601Z,6.36
2022-12-03T11:08:56.543Z,6.99
2022-12-03T11:11:30.212Z,5.51
2022-12-03T11:14:04.461Z,4.12
2022-12-03T11:16:41.627Z,2.94
2022-12-03T11:19:12.631Z,2.09
2022-12-03T11:22:05.534Z,1.46
2022-12-03T11:24:37.088Z,0.89
2022-12-03T11:27:04.996Z,1.07
2022-12-03T11:29:56.254Z,3.63
2022-12-03T11:33:01.328Z,6.25
2022-12-03T11:36:04.040Z,5.93
2022-12-03T11:38:38.348Z,4.06
2022-12-03T11:41:18.306Z,2.97
2022-12-03T11:43:52.270Z,2.11
2022-12-03T11:46:36.671Z,1.53
2022-12-03T11:49:32.091Z,1.05
2022-12-03T11:52:11.984Z,1.49
2022-12-03T11:54:39.985Z,4.18
2022-12-03T11:57:30.992Z,6.01
2022-12-03T12:00:28.666Z,6.60
2022-12-03T12:02:58.592Z,4.94
2022-12-03T12:05:30.266Z,3.73
2022-12-03T12:08:00.998Z,2.88
2022-12-03T12:10:49.563Z,2.19
2022-12-03T12:13:32.731Z,1.57
2022-12-03T12:16:11.195Z,1.14
2022-12-03T12:18:45.851Z,1.34
2022-12-03T12:21:50.112Z,3.85
2022-12-03T12:24:43.656Z,6.50
2022-12-03T12:27:15.248Z,7.04
2022-12-03T12:29:50.440Z,5.54
2022-12-03T12:32:23.367Z,3.95
2022-12-03T12:34:57.216Z,2.71
2022-12-03T12:38:00.151Z,1.81
2022-12-03T12:40:32.361Z,1.13
2022-12-03T12:43:28.067Z,0.73
2022-12-03T12:46:18.839Z,1.26
2022-12-03T12:48:49.580Z,4.15
2022-12-03T12:51:21.552Z,6.12
2022-12-03T12:53:50.387Z,7.09
2022-12-03T12:56:32.807Z,5.87
2022-12-03T12:59:20.599Z,4.13
2022-12-03T13:01:50.348Z,2.87
2022-12-03T13:04:22.817Z,2.04
2022-12-03T13:06:54.219Z,1.31
2022-12-03T13:09:25.545Z,0.75
2022-12-03T13:12:01.286Z,0.94
2022-12-03T13:14:37.066Z,3.65
2022-12-03T13:17:16.727Z,6.19
2022-12-03T13:20:00.584Z,6.97
2022-12-03T13:22:33.033Z,5.35
2022-12-03T13:25:57.355Z,3.85
2022-12-03T13:28:20.196Z,2.54
2022-12-03T13:30:48.099Z,1.80
2022-12-03T13:33:26.638Z,1.77
2022-12-03T13:35:56.598Z,4.26
2022-12-03T13:38:26.068Z,6.65
2022-12-03T13:41:03.069Z,7.29
2022-12-03T13:43:32.948Z,5.68
2022-12-03T13:46:01.438Z,4.12
2022-12-03T13:48:35.225Z,3.00
2022-12-03T13:51:27.230Z,2.15
2022-12-03T13:53:55.465Z,1.36
2022-12-03T13:56:32.862Z,0.84
2022-12-03T13:59:02.228Z,1.19
2022-12-03T14:01:30.776Z,4.01
2022-12-03T14:03:59.079Z,6.40
2022-12-03T14:06:26.999Z,7.14
2022-12-03T14:08:54.946Z,5.63
2022-12-03T14:11:41.392Z,4.12
2022-12-03T14:14:09.456Z,2.89
2022-12-03T14:16:37.387Z,2.07
2022-12-03T14:19:06.380Z,1.47
2022-12-03T14:21:34.323Z,0.98
2022-12-03T14:24:02.266Z,1.15
2022-12-03T14:26:30.153Z,3.62
2022-12-03T14:28:58.125Z,5.97
2022-12-03T14:31:26.003Z,6.38
2022-12-03T14:33:53.924Z,4.80
2022-12-03T14:36:21.870Z,3.28
2022-12-03T14:38:49.792Z,2.24
2022-12-03T14:41:36.574Z,1.48
2022-12-03T14:44:04.533Z,0.80
2022-12-03T14:46:32.587Z,0.94
2022-12-03T14:49:00.454Z,3.41
2022-12-03T14:51:28.390Z,5.72
2022-12-03T14:53:56.426Z,6.82
2022-12-03T14:56:24.415Z,5.56
2022-12-03T14:58:52.336Z,3.96
2022-12-03T15:01:20.257Z,2.80
2022-12-03T15:03:48.331Z,1.94
2022-12-03T15:06:16.201Z,1.32
2022-12-03T15:08:44.899Z,1.37
2022-12-03T15:11:12.885Z,3.59
2022-12-03T15:13:40.783Z,5.66
2022-12-03T15:16:09.048Z,6.93
2022-12-03T15:18:36.985Z,7.29
2022-12-03T15:21:05.003Z,5.78
2022-12-03T15:23:32.827Z,4.13
2022-12-03T15:26:00.941Z,2.97
2022-12-03T15:28:28.882Z,2.08
2022-12-03T15:30:57.046Z,1.39
2022-12-03T15:33:25.974Z,0.80
2022-12-03T15:35:53.988Z,0.88
2022-12-03T15:38:21.964Z,3.23
2022-12-03T15:40:51.333Z,5.43
2022-12-03T15:43:19.185Z,6.47
2022-12-03T15:45:47.346Z,6.43
2022-12-03T15:48:15.769Z,5.18
2022-12-03T15:50:43.722Z,3.72
2022-12-03T15:53:11.590Z,2.66
2022-12-03T15:55:39.555Z,1.90
2022-12-03T15:58:07.506Z,1.29
2022-12-03T16:00:35.337Z,0.74
2022-12-03T16:03:03.273Z,0.82
2022-12-03T16:05:31.207Z,3.05
2022-12-03T16:07:59.146Z,5.39
2022-12-03T16:10:27.121Z,6.47
2022-12-03T16:12:55.040Z,5.20
2022-12-03T16:15:26.858Z,3.64
2022-12-03T16:17:55.469Z,2.53
2022-12-03T16:20:23.446Z,1.78
2022-12-03T16:22:52.213Z,1.24
2022-12-03T16:25:20.060Z,0.81
2022-12-03T16:27:47.952Z,0.98
2022-12-03T16:30:16.107Z,3.26
2022-12-03T16:32:43.973Z,5.42
2022-12-03T16:35:11.819Z,6.46
2022-12-03T16:37:39.649Z,5.43
2022-12-03T16:40:08.814Z,3.93
2022-12-03T16:42:37.477Z,2.82
2022-12-03T16:45:08.851Z,2.04
2022-12-03T16:47:37.142Z,1.35
2022-12-03T16:50:10.632Z,1.25
2022-12-03T16:52:40.730Z,3.59
2022-12-03T16:55:09.455Z,5.63
2022-12-03T16:57:37.377Z,6.76
2022-12-03T17:00:08.431Z,6.98
2022-12-03T17:02:36.472Z,5.56
2022-12-03T17:05:04.917Z,4.17
2022-12-03T17:07:33.155Z,3.12
2022-12-03T17:10:01.309Z,2.33
2022-12-03T17:12:42.167Z,1.70
2022-12-03T17:15:11.190Z,1.12
2022-12-03T17:17:39.208Z,1.06
2022-12-03T17:20:08.419Z,2.67
2022-12-03T17:22:36.275Z,4.33
2022-12-03T17:25:04.432Z,5.27
2022-12-03T17:27:32.327Z,5.41
2022-12-03T17:30:00.775Z,4.31
2022-12-03T17:32:29.135Z,2.98
2022-12-03T17:34:57.317Z,2.02
2022-12-03T17:37:25.521Z,1.31
2022-12-03T17:39:53.751Z,1.06
2022-12-03T17:42:22.079Z,2.37
2022-12-03T17:44:50.081Z,3.93
2022-12-03T17:47:18.027Z,5.04
2022-12-03T17:49:45.934Z,5.58
2022-12-03T17:52:13.873Z,4.56
2022-12-03T17:55:08.963Z,3.24
2022-12-03T17:57:29.776Z,2.16
2022-12-03T17:59:57.740Z,1.50
2022-12-03T18:02:25.656Z,1.02
2022-12-03T18:04:53.692Z,0.98
2022-12-03T18:07:21.778Z,3.11
2022-12-03T18:09:50.065Z,4.88
2022-12-03T18:12:17.985Z,5.56
2022-12-03T18:14:45.927Z,5.66
2022-12-03T18:17:14.521Z,4.55
2022-12-03T18:19:42.466Z,3.31
2022-12-03T18:22:10.376Z,2.36
2022-12-03T18:24:38.310Z,1.59
2022-12-03T18:27:06.256Z,1.24
2022-12-03T18:29:34.350Z,2.27
2022-12-03T18:32:02.319Z,3.83
2022-12-03T18:34:30.239Z,4.83
2022-12-03T18:36:58.093Z,5.20
2022-12-03T18:39:34.060Z,4.98
2022-12-03T18:42:06.747Z,3.68
2022-12-03T18:44:34.696Z,2.56
2022-12-03T18:47:02.817Z,1.74
2022-12-03T18:49:30.711Z,1.11
2022-12-03T18:51:59.727Z,1.01
2022-12-03T18:54:28.152Z,2.58
2022-12-03T18:56:56.318Z,4.05
2022-12-03T18:59:24.234Z,5.15
2022-12-03T19:01:52.193Z,5.79
2022-12-03T19:04:21.651Z,5.94
2022-12-03T19:06:49.705Z,4.80
2022-12-03T19:09:17.784Z,3.55
2022-12-03T19:11:45.629Z,2.66
2022-12-03T19:14:13.627Z,2.01
2022-12-03T19:16:42.074Z,1.46
2022-12-03T19:19:10.354Z,1.29
2022-12-03T19:21:38.462Z,2.62
2022-12-03T19:26:55.719Z,5.52
2022-12-03T19:29:24.790Z,5.76
2022-12-03T19:31:53.177Z,4.70
2022-12-03T19:34:21.513Z,3.52
2022-12-03T19:36:49.624Z,2.64
2022-12-03T19:39:17.544Z,1.96
2022-12-03T19:41:45.503Z,1.43
2022-12-03T19:44:16.234Z,1.34
2022-12-03T19:46:45.031Z,3.06
2022-12-03T19:49:13.010Z,4.61
2022-12-03T19:51:40.916Z,5.59
2022-12-03T19:54:12.049Z,5.95
2022-12-03T19:56:40.348Z,4.88
2022-12-03T19:59:08.957Z,3.67
2022-12-03T20:01:38.448Z,2.80
2022-12-03T20:04:07.931Z,2.14
2022-12-03T20:06:39.227Z,1.63
2022-12-03T20:09:16.426Z,1.55
2022-12-03T20:11:46.006Z,3.23
2022-12-03T20:14:16.548Z,5.37
2022-12-03T20:16:45.588Z,6.31
2022-12-03T20:19:17.883Z,5.24
2022-12-03T20:21:46.143Z,3.91
2022-12-03T20:24:17.446Z,2.96
2022-12-03T20:26:45.820Z,2.26
2022-12-03T20:29:14.894Z,1.72
2022-12-03T20:31:42.929Z,1.25
2022-12-03T20:34:11.443Z,0.85
2022-12-03T20:36:40.190Z,0.99
2022-12-03T20:39:08.538Z,3.36
2022-12-03T20:41:37.607Z,5.65
2022-12-03T20:44:07.691Z,6.65
2022-12-03T20:46:36.450Z,5.56
2022-12-03T20:49:05.166Z,4.16
2022-12-03T20:51:33.305Z,3.02
2022-12-03T20:54:01.868Z,2.22
2022-12-03T20:56:34.881Z,1.65
2022-12-03T20:59:10.513Z,1.20
2022-12-03T21:01:39.193Z,1.41
2022-12-03T21:04:08.945Z,3.80
2022-12-03T21:06:37.804Z,5.99
2022-12-03T21:09:07.239Z,6.57
2022-12-03T21:11:39.270Z,5.36
2022-12-03T21:14:09.160Z,4.00
2022-12-03T21:17:07.219Z,3.04
2022-12-03T21:19:27.767Z,2.22
2022-12-03T21:21:55.706Z,1.66
2022-12-03T21:24:23.765Z,1.57
2022-12-03T21:26:51.682Z,3.52
2022-12-03T21:29:19.604Z,5.88
2022-12-03T21:31:47.511Z,7.10
2022-12-03T21:34:15.832Z,7.05
2022-12-03T21:36:43.695Z,5.68
2022-12-03T21:39:11.646Z,4.23
2022-12-03T21:41:39.549Z,3.21
2022-12-03T21:44:07.523Z,2.50
2022-12-03T21:47:10.048Z,1.93
2022-12-03T21:49:23.526Z,1.41
2022-12-03T21:51:51.487Z,1.58
2022-12-03T21:54:19.355Z,4.01
2022-12-03T21:56:47.203Z,6.44
2022-12-03T21:59:15.145Z,7.40
2022-12-03T22:01:47.116Z,6.20
2022-12-03T22:04:15.402Z,4.74
2022-12-03T22:06:43.404Z,3.74
2022-12-03T22:09:11.307Z,3.02
2022-12-03T22:11:39.258Z,2.46
2022-12-03T22:14:08.358Z,1.99
2022-12-03T22:16:36.373Z,1.61
2022-12-03T22:19:04.443Z,1.79
2022-12-03T22:21:32.336Z,4.08
2022-12-03T22:24:00.197Z,6.44
2022-12-03T22:26:28.096Z,7.42
2022-12-03T22:28:56.021Z,6.22
2022-12-03T22:31:23.937Z,4.77
2022-12-03T22:33:51.879Z,3.70
2022-12-03T22:36:21.607Z,2.95
2022-12-03T22:38:51.194Z,2.37
2022-12-03T22:41:20.588Z,1.92
2022-12-03T22:43:49.861Z,2.05
2022-12-03T22:46:17.949Z,4.32
2022-12-03T22:48:47.648Z,6.72
2022-12-03T22:51:18.487Z,7.64
2022-12-03T22:53:47.805Z,6.44
2022-12-03T22:56:17.419Z,5.02
2022-12-03T22:58:45.401Z,3.98
2022-12-03T23:01:29.198Z,3.27
2022-12-03T23:03:57.762Z,2.63
2022-12-03T23:06:27.322Z,2.13
2022-12-03T23:08:56.633Z,1.73
2022-12-03T23:11:25.231Z,1.96
2022-12-03T23:13:53.302Z,4.31
2022-12-03T23:16:29.415Z,6.85
2022-12-03T23:18:59.775Z,7.82
2022-12-03T23:21:31.452Z,6.47
2022-12-03T23:24:04.960Z,5.01
2022-12-03T23:26:38.491Z,3.97
2022-12-03T23:29:08.710Z,3.26
2022-12-03T23:31:37.028Z,2.70
2022-12-03T23:34:05.679Z,2.21
2022-12-03T23:36:34.296Z,1.83
2022-12-03T23:39:02.314Z,2.01
2022-12-03T23:41:30.204Z,4.47
2022-12-03T23:43:58.098Z,6.90
2022-12-03T23:46:27.646Z,7.82
2022-12-03T23:48:58.668Z,6.48
2022-12-03T23:51:27.317Z,5.02
2022-12-03T23:53:56.397Z,3.96
2022-12-03T23:56:29.249Z,3.26
2022-12-03T23:58:58.667Z,2.71
